sensor_id;sensor_type;location;lat;lon;timestamp;pressure;altitude;pressure_sealevel;temperature;humidity
5455;BME280;2750;49.050;9.250;2024-01-27T00:00:51;100560.41;;;4.23;88.12
5455;BME280;2750;49.050;9.250;2024-01-27T00:05:54;100565.63;;;4.30;87.57
5455;BME280;2750;49.050;9.250;2024-01-27T00:10:56;100556.03;;;4.11;87.69
5455;BME280;2750;49.050;9.250;2024-01-27T00:15:57;100557.81;;;4.18;87.31
5455;BME280;2750;49.050;9.250;2024-01-27T00:21:00;100560.34;;;4.12;87.26
5455;BME280;2750;49.050;9.250;2024-01-27T00:26:02;100574.91;;;4.18;86.96
5455;BME280;2750;49.050;9.250;2024-01-27T00:31:04;100583.44;;;4.09;86.97
5455;BME280;2750;49.050;9.250;2024-01-27T00:36:07;100585.78;;;3.88;87.89
5455;BME280;2750;49.050;9.250;2024-01-27T00:41:08;100581.50;;;3.87;87.35
5455;BME280;2750;49.050;9.250;2024-01-27T00:46:13;100584.09;;;3.90;86.96
5455;BME280;2750;49.050;9.250;2024-01-27T00:51:16;100586.53;;;3.75;87.50
5455;BME280;2750;49.050;9.250;2024-01-27T00:56:17;100584.00;;;3.81;87.20
5455;BME280;2750;49.050;9.250;2024-01-27T01:01:19;100584.69;;;3.65;87.71
5455;BME280;2750;49.050;9.250;2024-01-27T01:06:22;100586.25;;;3.51;87.89
5455;BME280;2750;49.050;9.250;2024-01-27T01:11:24;100587.19;;;3.59;87.58
5455;BME280;2750;49.050;9.250;2024-01-27T01:16:25;100593.13;;;3.55;87.16
5455;BME280;2750;49.050;9.250;2024-01-27T01:21:28;100602.50;;;3.53;87.63
5455;BME280;2750;49.050;9.250;2024-01-27T01:26:30;100600.00;;;3.56;87.35
5455;BME280;2750;49.050;9.250;2024-01-27T01:31:31;100613.53;;;3.46;87.55
5455;BME280;2750;49.050;9.250;2024-01-27T01:36:34;100611.88;;;3.48;87.30
5455;BME280;2750;49.050;9.250;2024-01-27T01:41:36;100611.00;;;3.47;87.49
5455;BME280;2750;49.050;9.250;2024-01-27T01:46:38;100613.47;;;3.36;87.87
5455;BME280;2750;49.050;9.250;2024-01-27T01:51:41;100626.75;;;3.08;89.01
5455;BME280;2750;49.050;9.250;2024-01-27T01:56:42;100631.31;;;3.29;88.11
5455;BME280;2750;49.050;9.250;2024-01-27T02:01:44;100635.53;;;3.25;87.09
5455;BME280;2750;49.050;9.250;2024-01-27T02:06:47;100639.81;;;3.26;86.99
5455;BME280;2750;49.050;9.250;2024-01-27T02:11:49;100653.22;;;3.07;87.91
5455;BME280;2750;49.050;9.250;2024-01-27T02:16:50;100655.09;;;3.17;87.54
5455;BME280;2750;49.050;9.250;2024-01-27T02:21:53;100662.88;;;3.25;87.41
5455;BME280;2750;49.050;9.250;2024-01-27T02:26:56;100666.31;;;3.25;87.89
5455;BME280;2750;49.050;9.250;2024-01-27T02:31:57;100671.06;;;2.98;88.56
5455;BME280;2750;49.050;9.250;2024-01-27T02:36:59;100672.66;;;2.92;89.36
5455;BME280;2750;49.050;9.250;2024-01-27T02:42:02;100671.78;;;2.89;89.08
5455;BME280;2750;49.050;9.250;2024-01-27T02:47:04;100672.75;;;2.98;87.93
5455;BME280;2750;49.050;9.250;2024-01-27T02:52:05;100678.28;;;3.25;88.20
5455;BME280;2750;49.050;9.250;2024-01-27T02:57:08;100685.00;;;3.18;88.90
5455;BME280;2750;49.050;9.250;2024-01-27T03:02:10;100686.47;;;3.01;88.50
5455;BME280;2750;49.050;9.250;2024-01-27T03:07:11;100674.31;;;2.88;87.74
5455;BME280;2750;49.050;9.250;2024-01-27T03:12:14;100680.44;;;2.98;86.92
5455;BME280;2750;49.050;9.250;2024-01-27T03:17:16;100685.56;;;2.98;87.33
5455;BME280;2750;49.050;9.250;2024-01-27T03:22:17;100682.69;;;2.78;87.57
5455;BME280;2750;49.050;9.250;2024-01-27T03:27:20;100684.41;;;2.77;87.12
5455;BME280;2750;49.050;9.250;2024-01-27T03:32:22;100685.97;;;2.68;87.82
5455;BME280;2750;49.050;9.250;2024-01-27T03:37:23;100694.47;;;2.67;86.47
5455;BME280;2750;49.050;9.250;2024-01-27T03:42:26;100703.91;;;2.68;87.17
5455;BME280;2750;49.050;9.250;2024-01-27T03:47:28;100696.78;;;2.52;86.50
5455;BME280;2750;49.050;9.250;2024-01-27T03:52:29;100701.78;;;2.44;87.15
5455;BME280;2750;49.050;9.250;2024-01-27T03:57:32;100709.72;;;2.61;85.83
5455;BME280;2750;49.050;9.250;2024-01-27T04:02:34;100714.94;;;2.64;85.79
5455;BME280;2750;49.050;9.250;2024-01-27T04:07:35;100717.66;;;2.74;85.37
5455;BME280;2750;49.050;9.250;2024-01-27T04:12:38;100720.97;;;2.67;85.54
5455;BME280;2750;49.050;9.250;2024-01-27T04:17:40;100719.88;;;2.55;85.58
5455;BME280;2750;49.050;9.250;2024-01-27T04:22:41;100721.75;;;2.65;84.79
5455;BME280;2750;49.050;9.250;2024-01-27T04:27:44;100734.25;;;2.47;85.93
5455;BME280;2750;49.050;9.250;2024-01-27T04:32:46;100723.22;;;2.51;85.49
5455;BME280;2750;49.050;9.250;2024-01-27T04:37:49;100733.56;;;2.55;86.05
5455;BME280;2750;49.050;9.250;2024-01-27T04:42:52;100745.41;;;2.49;85.46
5455;BME280;2750;49.050;9.250;2024-01-27T04:47:54;100742.75;;;2.44;86.95
5455;BME280;2750;49.050;9.250;2024-01-27T04:52:55;100752.88;;;2.38;87.41
5455;BME280;2750;49.050;9.250;2024-01-27T04:57:58;100755.53;;;2.42;87.17
5455;BME280;2750;49.050;9.250;2024-01-27T05:03:00;100745.56;;;2.58;86.61
5455;BME280;2750;49.050;9.250;2024-01-27T05:08:04;100754.75;;;2.45;86.88
5455;BME280;2750;49.050;9.250;2024-01-27T05:13:07;100756.66;;;2.57;86.52
5455;BME280;2750;49.050;9.250;2024-01-27T05:18:09;100753.91;;;2.48;86.32
5455;BME280;2750;49.050;9.250;2024-01-27T05:23:11;100752.13;;;2.44;86.66
5455;BME280;2750;49.050;9.250;2024-01-27T05:28:14;100761.47;;;2.40;86.64
5455;BME280;2750;49.050;9.250;2024-01-27T05:33:15;100762.44;;;2.47;86.61
5455;BME280;2750;49.050;9.250;2024-01-27T05:38:17;100758.63;;;2.25;87.12
5455;BME280;2750;49.050;9.250;2024-01-27T05:43:20;100758.63;;;2.25;87.27
5455;BME280;2750;49.050;9.250;2024-01-27T05:48:22;100756.69;;;2.13;87.26
5455;BME280;2750;49.050;9.250;2024-01-27T05:53:24;100754.41;;;2.28;86.75
5455;BME280;2750;49.050;9.250;2024-01-27T05:58:27;100757.81;;;2.27;86.80
5455;BME280;2750;49.050;9.250;2024-01-27T06:03:29;100763.88;;;2.32;85.48
5455;BME280;2750;49.050;9.250;2024-01-27T06:08:31;100770.56;;;2.24;85.39
5455;BME280;2750;49.050;9.250;2024-01-27T06:13:34;100774.75;;;2.22;85.35
5455;BME280;2750;49.050;9.250;2024-01-27T06:18:37;100777.28;;;2.19;85.31
5455;BME280;2750;49.050;9.250;2024-01-27T06:23:39;100779.69;;;2.12;84.70
5455;BME280;2750;49.050;9.250;2024-01-27T06:28:42;100773.78;;;2.14;84.67
5455;BME280;2750;49.050;9.250;2024-01-27T06:33:43;100778.81;;;2.10;84.46
5455;BME280;2750;49.050;9.250;2024-01-27T06:38:45;100781.38;;;2.10;84.74
5455;BME280;2750;49.050;9.250;2024-01-27T06:43:48;100795.09;;;2.15;84.53
5455;BME280;2750;49.050;9.250;2024-01-27T06:48:50;100792.63;;;2.19;84.56
5455;BME280;2750;49.050;9.250;2024-01-27T06:53:51;100789.97;;;2.15;85.20
5455;BME280;2750;49.050;9.250;2024-01-27T06:58:54;100794.41;;;1.81;87.24
5455;BME280;2750;49.050;9.250;2024-01-27T07:03:55;100790.69;;;2.06;85.59
5455;BME280;2750;49.050;9.250;2024-01-27T07:08:57;100789.91;;;2.12;86.24
5455;BME280;2750;49.050;9.250;2024-01-27T07:14:00;100804.66;;;2.23;86.00
5455;BME280;2750;49.050;9.250;2024-01-27T07:19:01;100820.78;;;2.18;86.31
5455;BME280;2750;49.050;9.250;2024-01-27T07:24:03;100809.53;;;2.11;87.34
5455;BME280;2750;49.050;9.250;2024-01-27T07:29:07;100819.44;;;1.96;87.72
5455;BME280;2750;49.050;9.250;2024-01-27T07:34:09;100814.78;;;2.17;87.72
5455;BME280;2750;49.050;9.250;2024-01-27T07:39:10;100813.66;;;2.47;87.14
5455;BME280;2750;49.050;9.250;2024-01-27T07:44:13;100814.81;;;2.62;87.20
5455;BME280;2750;49.050;9.250;2024-01-27T07:49:15;100815.72;;;2.66;87.00
5455;BME280;2750;49.050;9.250;2024-01-27T07:54:18;100816.13;;;2.87;86.71
5455;BME280;2750;49.050;9.250;2024-01-27T07:59:20;100808.22;;;2.30;88.62
5455;BME280;2750;49.050;9.250;2024-01-27T08:04:22;100797.47;;;2.48;89.03
5455;BME280;2750;49.050;9.250;2024-01-27T08:09:23;100801.75;;;2.50;88.92
5455;BME280;2750;49.050;9.250;2024-01-27T08:14:26;100810.66;;;2.69;89.93
5455;BME280;2750;49.050;9.250;2024-01-27T08:19:28;100802.03;;;3.13;89.67
5455;BME280;2750;49.050;9.250;2024-01-27T08:24:29;100799.47;;;3.13;89.53
5455;BME280;2750;49.050;9.250;2024-01-27T08:29:32;100807.91;;;3.06;90.59
5455;BME280;2750;49.050;9.250;2024-01-27T08:34:34;100800.66;;;3.35;89.98
5455;BME280;2750;49.050;9.250;2024-01-27T08:39:35;100814.38;;;3.37;90.28
5455;BME280;2750;49.050;9.250;2024-01-27T08:44:38;100816.28;;;3.50;91.36
5455;BME280;2750;49.050;9.250;2024-01-27T08:49:40;100805.72;;;3.89;91.08
5455;BME280;2750;49.050;9.250;2024-01-27T08:54:41;100793.44;;;4.33;90.71
5455;BME280;2750;49.050;9.250;2024-01-27T08:59:44;100800.28;;;4.34;90.40
5455;BME280;2750;49.050;9.250;2024-01-27T09:04:46;100800.97;;;4.19;91.85
5455;BME280;2750;49.050;9.250;2024-01-27T09:09:47;100800.38;;;4.40;91.43
5455;BME280;2750;49.050;9.250;2024-01-27T09:14:50;100793.78;;;4.68;91.04
5455;BME280;2750;49.050;9.250;2024-01-27T09:19:54;100791.34;;;4.83;90.61
5455;BME280;2750;49.050;9.250;2024-01-27T09:24:55;100791.59;;;5.06;91.08
5455;BME280;2750;49.050;9.250;2024-01-27T09:29:58;100803.75;;;5.29;90.21
5455;BME280;2750;49.050;9.250;2024-01-27T09:35:00;100803.03;;;5.44;89.82
5455;BME280;2750;49.050;9.250;2024-01-27T09:40:01;100802.31;;;5.69;90.06
5455;BME280;2750;49.050;9.250;2024-01-27T09:45:08;100803.16;;;5.68;89.56
5455;BME280;2750;49.050;9.250;2024-01-27T09:50:11;100802.56;;;6.10;89.49
5455;BME280;2750;49.050;9.250;2024-01-27T09:55:13;100822.28;;;6.04;88.02
5455;BME280;2750;49.050;9.250;2024-01-27T10:00:16;100819.91;;;6.51;89.52
5455;BME280;2750;49.050;9.250;2024-01-27T10:05:18;100825.94;;;6.54;88.83
5455;BME280;2750;49.050;9.250;2024-01-27T10:10:20;100831.91;;;6.40;87.91
5455;BME280;2750;49.050;9.250;2024-01-27T10:15:23;100825.19;;;7.01;88.26
5455;BME280;2750;49.050;9.250;2024-01-27T10:20:28;100824.31;;;7.11;88.32
5455;BME280;2750;49.050;9.250;2024-01-27T10:25:30;100832.06;;;7.34;89.09
5455;BME280;2750;49.050;9.250;2024-01-27T10:30:33;100822.56;;;7.55;89.88
5455;BME280;2750;49.050;9.250;2024-01-27T10:35:34;100826.81;;;7.82;88.78
5455;BME280;2750;49.050;9.250;2024-01-27T10:40:36;100808.75;;;7.88;87.79
5455;BME280;2750;49.050;9.250;2024-01-27T10:45:40;100807.81;;;8.07;87.40
5455;BME280;2750;49.050;9.250;2024-01-27T10:50:41;100802.66;;;8.06;85.75
5455;BME280;2750;49.050;9.250;2024-01-27T10:55:43;100804.34;;;8.14;85.47
5455;BME280;2750;49.050;9.250;2024-01-27T11:00:48;100790.69;;;7.76;84.43
5455;BME280;2750;49.050;9.250;2024-01-27T11:05:51;100766.56;;;7.71;85.16
5455;BME280;2750;49.050;9.250;2024-01-27T11:10:53;100763.09;;;7.93;85.13
5455;BME280;2750;49.050;9.250;2024-01-27T11:15:56;100746.59;;;8.14;84.90
5455;BME280;2750;49.050;9.250;2024-01-27T11:20:59;100755.19;;;8.19;83.05
5455;BME280;2750;49.050;9.250;2024-01-27T11:26:04;100743.00;;;8.48;81.60
5455;BME280;2750;49.050;9.250;2024-01-27T11:31:08;100738.41;;;8.88;79.89
5455;BME280;2750;49.050;9.250;2024-01-27T11:36:18;100729.94;;;8.68;79.61
5455;BME280;2750;49.050;9.250;2024-01-27T11:41:26;100737.44;;;8.97;78.63
5455;BME280;2750;49.050;9.250;2024-01-27T11:46:29;100738.06;;;9.25;76.85
5455;BME280;2750;49.050;9.250;2024-01-27T11:51:30;100728.63;;;9.22;75.91
5455;BME280;2750;49.050;9.250;2024-01-27T11:56:32;100707.56;;;9.51;74.80
5455;BME280;2750;49.050;9.250;2024-01-27T12:01:35;100708.28;;;9.67;74.23
5455;BME280;2750;49.050;9.250;2024-01-27T12:06:36;100689.97;;;9.80;74.16
5455;BME280;2750;49.050;9.250;2024-01-27T12:11:39;100689.06;;;9.81;74.38
5455;BME280;2750;49.050;9.250;2024-01-27T12:16:50;100685.31;;;10.05;73.65
5455;BME280;2750;49.050;9.250;2024-01-27T12:21:53;100684.38;;;10.15;73.30
5455;BME280;2750;49.050;9.250;2024-01-27T12:26:55;100684.28;;;10.20;70.49
5455;BME280;2750;49.050;9.250;2024-01-27T12:31:58;100692.56;;;10.46;71.45
5455;BME280;2750;49.050;9.250;2024-01-27T12:37:02;100681.09;;;10.59;73.59
5455;BME280;2750;49.050;9.250;2024-01-27T12:42:04;100664.50;;;10.69;72.66
5455;BME280;2750;49.050;9.250;2024-01-27T12:47:07;100665.13;;;10.83;72.43
5455;BME280;2750;49.050;9.250;2024-01-27T12:52:10;100661.66;;;10.84;73.32
5455;BME280;2750;49.050;9.250;2024-01-27T12:57:12;100668.59;;;10.82;70.56
5455;BME280;2750;49.050;9.250;2024-01-27T13:02:14;100666.19;;;10.70;70.76
5455;BME280;2750;49.050;9.250;2024-01-27T13:07:16;100681.13;;;10.58;70.26
5455;BME280;2750;49.050;9.250;2024-01-27T13:12:18;100669.72;;;10.66;69.44
5455;BME280;2750;49.050;9.250;2024-01-27T13:17:21;100686.03;;;10.74;68.39
5455;BME280;2750;49.050;9.250;2024-01-27T13:22:22;100685.47;;;10.55;68.82
5455;BME280;2750;49.050;9.250;2024-01-27T13:27:25;100666.56;;;10.49;68.69
5455;BME280;2750;49.050;9.250;2024-01-27T13:32:27;100673.84;;;10.81;68.93
5455;BME280;2750;49.050;9.250;2024-01-27T13:37:29;100660.66;;;10.91;67.76
5455;BME280;2750;49.050;9.250;2024-01-27T13:42:33;100661.53;;;10.90;66.61
5455;BME280;2750;49.050;9.250;2024-01-27T13:47:36;100653.72;;;10.92;66.25
5455;BME280;2750;49.050;9.250;2024-01-27T13:52:38;100657.25;;;10.88;66.57
5455;BME280;2750;49.050;9.250;2024-01-27T13:57:41;100638.88;;;11.44;65.96
5455;BME280;2750;49.050;9.250;2024-01-27T14:02:44;100628.66;;;11.78;65.17
5455;BME280;2750;49.050;9.250;2024-01-27T14:07:46;100627.16;;;12.07;65.06
5455;BME280;2750;49.050;9.250;2024-01-27T14:12:47;100617.06;;;11.93;64.85
5455;BME280;2750;49.050;9.250;2024-01-27T14:17:50;100609.00;;;11.64;65.33
5455;BME280;2750;49.050;9.250;2024-01-27T14:22:52;100624.31;;;11.36;66.84
5455;BME280;2750;49.050;9.250;2024-01-27T14:27:53;100622.78;;;11.26;67.20
5455;BME280;2750;49.050;9.250;2024-01-27T14:32:56;100607.56;;;11.08;67.92
5455;BME280;2750;49.050;9.250;2024-01-27T14:37:58;100609.66;;;10.87;67.70
5455;BME280;2750;49.050;9.250;2024-01-27T14:43:01;100616.09;;;11.13;67.57
5455;BME280;2750;49.050;9.250;2024-01-27T14:48:09;100618.03;;;11.46;67.25
5455;BME280;2750;49.050;9.250;2024-01-27T14:53:11;100604.78;;;11.58;67.02
5455;BME280;2750;49.050;9.250;2024-01-27T14:58:13;100602.31;;;11.54;67.03
5455;BME280;2750;49.050;9.250;2024-01-27T15:03:16;100618.03;;;11.46;67.57
5455;BME280;2750;49.050;9.250;2024-01-27T15:08:18;100599.97;;;11.40;67.84
5455;BME280;2750;49.050;9.250;2024-01-27T15:13:20;100598.06;;;11.48;67.64
5455;BME280;2750;49.050;9.250;2024-01-27T15:18:25;100596.41;;;11.44;67.60
5455;BME280;2750;49.050;9.250;2024-01-27T15:23:26;100597.44;;;11.37;67.78
5455;BME280;2750;49.050;9.250;2024-01-27T15:28:29;100600.81;;;10.97;69.30
5455;BME280;2750;49.050;9.250;2024-01-27T15:33:32;100597.16;;;10.60;69.62
5455;BME280;2750;49.050;9.250;2024-01-27T15:38:33;100598.97;;;10.55;70.98
5455;BME280;2750;49.050;9.250;2024-01-27T15:43:35;100603.59;;;10.38;71.38
5455;BME280;2750;49.050;9.250;2024-01-27T15:48:37;100609.50;;;9.86;71.81
5455;BME280;2750;49.050;9.250;2024-01-27T15:53:39;100603.25;;;9.37;72.99
5455;BME280;2750;49.050;9.250;2024-01-27T15:58:40;100610.44;;;9.13;73.71
5455;BME280;2750;49.050;9.250;2024-01-27T16:03:43;100619.03;;;9.19;73.45
5455;BME280;2750;49.050;9.250;2024-01-27T16:08:45;100612.13;;;9.18;73.96
5455;BME280;2750;49.050;9.250;2024-01-27T16:13:46;100613.97;;;9.05;74.68
5455;BME280;2750;49.050;9.250;2024-01-27T16:18:49;100606.44;;;8.82;74.22
5455;BME280;2750;49.050;9.250;2024-01-27T16:23:50;100607.50;;;8.63;75.30
5455;BME280;2750;49.050;9.250;2024-01-27T16:28:52;100623.19;;;8.46;76.63
5455;BME280;2750;49.050;9.250;2024-01-27T16:33:55;100629.34;;;8.30;76.24
5455;BME280;2750;49.050;9.250;2024-01-27T16:38:56;100632.00;;;8.13;76.24
5455;BME280;2750;49.050;9.250;2024-01-27T16:43:58;100646.13;;;7.40;79.85
5455;BME280;2750;49.050;9.250;2024-01-27T16:49:01;100646.25;;;6.99;80.54
5455;BME280;2750;49.050;9.250;2024-01-27T16:54:02;100649.66;;;7.14;79.92
5455;BME280;2750;49.050;9.250;2024-01-27T16:59:04;100646.19;;;7.28;79.98
5455;BME280;2750;49.050;9.250;2024-01-27T17:04:07;100634.16;;;7.17;80.40
5455;BME280;2750;49.050;9.250;2024-01-27T17:09:12;100642.00;;;6.60;82.17
5455;BME280;2750;49.050;9.250;2024-01-27T17:14:14;100638.56;;;6.56;83.14
5455;BME280;2750;49.050;9.250;2024-01-27T17:19:17;100656.59;;;6.28;85.77
5455;BME280;2750;49.050;9.250;2024-01-27T17:24:19;100659.19;;;6.41;85.15
5455;BME280;2750;49.050;9.250;2024-01-27T17:29:20;100660.03;;;6.40;86.53
5455;BME280;2750;49.050;9.250;2024-01-27T17:34:23;100641.13;;;6.09;86.75
5455;BME280;2750;49.050;9.250;2024-01-27T17:39:25;100638.53;;;6.23;85.17
5455;BME280;2750;49.050;9.250;2024-01-27T17:44:28;100642.00;;;6.28;84.72
5455;BME280;2750;49.050;9.250;2024-01-27T17:49:31;100645.41;;;6.29;85.34
5455;BME280;2750;49.050;9.250;2024-01-27T17:54:32;100639.38;;;6.11;84.39
5455;BME280;2750;49.050;9.250;2024-01-27T17:59:37;100645.38;;;6.03;84.01
5455;BME280;2750;49.050;9.250;2024-01-27T18:04:40;100659.84;;;5.72;85.51
5455;BME280;2750;49.050;9.250;2024-01-27T18:09:42;100660.66;;;5.54;85.56
5455;BME280;2750;49.050;9.250;2024-01-27T18:14:44;100647.69;;;5.41;85.75
5455;BME280;2750;49.050;9.250;2024-01-27T18:19:46;100675.22;;;5.48;86.06
5455;BME280;2750;49.050;9.250;2024-01-27T18:24:48;100682.00;;;5.37;85.14
5455;BME280;2750;49.050;9.250;2024-01-27T18:29:51;100666.56;;;5.32;84.43
5455;BME280;2750;49.050;9.250;2024-01-27T18:34:54;100675.09;;;5.29;84.19
5455;BME280;2750;49.050;9.250;2024-01-27T18:39:56;100687.94;;;5.20;84.53
5455;BME280;2750;49.050;9.250;2024-01-27T18:45:00;100681.88;;;5.12;84.60
5455;BME280;2750;49.050;9.250;2024-01-27T18:50:05;100686.97;;;5.05;85.62
5455;BME280;2750;49.050;9.250;2024-01-27T18:55:08;100672.22;;;4.81;84.99
5455;BME280;2750;49.050;9.250;2024-01-27T19:00:10;100685.06;;;4.81;84.17
5455;BME280;2750;49.050;9.250;2024-01-27T19:05:13;100673.84;;;4.71;85.01
5455;BME280;2750;49.050;9.250;2024-01-27T19:10:16;100669.53;;;4.63;85.61
5455;BME280;2750;49.050;9.250;2024-01-27T19:15:17;100670.25;;;4.50;86.45
5455;BME280;2750;49.050;9.250;2024-01-27T19:20:20;100677.97;;;4.48;86.32
5455;BME280;2750;49.050;9.250;2024-01-27T19:25:21;100680.34;;;4.28;86.21
5455;BME280;2750;49.050;9.250;2024-01-27T19:30:23;100688.03;;;4.27;86.31
5455;BME280;2750;49.050;9.250;2024-01-27T19:35:26;100676.00;;;4.21;85.69
5455;BME280;2750;49.050;9.250;2024-01-27T19:40:27;100666.56;;;4.22;86.47
5455;BME280;2750;49.050;9.250;2024-01-27T19:45:31;100655.47;;;4.26;86.57
5455;BME280;2750;49.050;9.250;2024-01-27T19:50:34;100666.47;;;4.11;87.48
5455;BME280;2750;49.050;9.250;2024-01-27T19:55:36;100675.63;;;3.88;88.19
5455;BME280;2750;49.050;9.250;2024-01-27T20:00:37;100667.91;;;3.85;88.62
5455;BME280;2750;49.050;9.250;2024-01-27T20:05:40;100669.72;;;3.94;88.20
5455;BME280;2750;49.050;9.250;2024-01-27T20:10:41;100665.22;;;3.76;88.21
5455;BME280;2750;49.050;9.250;2024-01-27T20:15:43;100664.16;;;3.57;89.27
5455;BME280;2750;49.050;9.250;2024-01-27T20:20:46;100673.44;;;3.48;89.17
5455;BME280;2750;49.050;9.250;2024-01-27T20:25:50;100654.56;;;3.43;88.89
5455;BME280;2750;49.050;9.250;2024-01-27T20:30:52;100662.34;;;3.49;88.27
5455;BME280;2750;49.050;9.250;2024-01-27T20:35:55;100663.41;;;3.66;88.06
5455;BME280;2750;49.050;9.250;2024-01-27T20:40:56;100647.78;;;3.48;87.61
5455;BME280;2750;49.050;9.250;2024-01-27T20:45:58;100659.84;;;3.55;87.48
5455;BME280;2750;49.050;9.250;2024-01-27T20:51:03;100654.81;;;3.62;87.87
5455;BME280;2750;49.050;9.250;2024-01-27T20:56:05;100651.31;;;3.56;88.23
5455;BME280;2750;49.050;9.250;2024-01-27T21:01:07;100632.59;;;3.63;88.06
5455;BME280;2750;49.050;9.250;2024-01-27T21:06:10;100632.53;;;3.58;87.48
5455;BME280;2750;49.050;9.250;2024-01-27T21:11:11;100639.38;;;3.59;87.73
5455;BME280;2750;49.050;9.250;2024-01-27T21:16:13;100629.38;;;3.82;86.79
5455;BME280;2750;49.050;9.250;2024-01-27T21:21:16;100628.63;;;3.95;86.84
5455;BME280;2750;49.050;9.250;2024-01-27T21:26:18;100617.41;;;3.82;87.16
5455;BME280;2750;49.050;9.250;2024-01-27T21:31:19;100623.97;;;3.61;88.37
5455;BME280;2750;49.050;9.250;2024-01-27T21:36:22;100619.22;;;3.93;86.64
5455;BME280;2750;49.050;9.250;2024-01-27T21:41:24;100616.66;;;3.96;85.83
5455;BME280;2750;49.050;9.250;2024-01-27T21:46:25;100631.97;;;3.85;86.77
5455;BME280;2750;49.050;9.250;2024-01-27T21:51:28;100621.81;;;3.97;85.97
5455;BME280;2750;49.050;9.250;2024-01-27T21:56:30;100603.84;;;3.97;85.59
5455;BME280;2750;49.050;9.250;2024-01-27T22:01:33;100595.19;;;3.86;84.55
5455;BME280;2750;49.050;9.250;2024-01-27T22:06:35;100607.19;;;3.89;84.37
5455;BME280;2750;49.050;9.250;2024-01-27T22:11:37;100590.03;;;3.83;84.24
5455;BME280;2750;49.050;9.250;2024-01-27T22:16:39;100589.94;;;3.77;83.90
5455;BME280;2750;49.050;9.250;2024-01-27T22:21:41;100591.59;;;3.72;84.11
5455;BME280;2750;49.050;9.250;2024-01-27T22:26:43;100573.63;;;3.67;85.00
5455;BME280;2750;49.050;9.250;2024-01-27T22:31:45;100566.06;;;3.84;85.45
5455;BME280;2750;49.050;9.250;2024-01-27T22:36:48;100578.97;;;3.92;84.58
5455;BME280;2750;49.050;9.250;2024-01-27T22:41:50;100574.72;;;3.95;84.76
5455;BME280;2750;49.050;9.250;2024-01-27T22:46:51;100566.22;;;3.98;84.43
5455;BME280;2750;49.050;9.250;2024-01-27T22:51:54;100570.44;;;3.93;84.51
5455;BME280;2750;49.050;9.250;2024-01-27T22:56:55;100563.44;;;3.78;84.59
5455;BME280;2750;49.050;9.250;2024-01-27T23:01:57;100559.28;;;3.89;84.81
5455;BME280;2750;49.050;9.250;2024-01-27T23:06:59;100560.94;;;3.84;85.45
5455;BME280;2750;49.050;9.250;2024-01-27T23:12:01;100554.91;;;3.79;85.30
5455;BME280;2750;49.050;9.250;2024-01-27T23:17:03;100563.50;;;3.84;85.59
5455;BME280;2750;49.050;9.250;2024-01-27T23:22:06;100545.47;;;3.78;85.06
5455;BME280;2750;49.050;9.250;2024-01-27T23:27:07;100556.59;;;3.75;84.01
5455;BME280;2750;49.050;9.250;2024-01-27T23:32:09;100545.22;;;3.51;84.84
5455;BME280;2750;49.050;9.250;2024-01-27T23:37:12;100546.94;;;3.52;84.23
5455;BME280;2750;49.050;9.250;2024-01-27T23:42:13;100548.28;;;3.22;85.10
5455;BME280;2750;49.050;9.250;2024-01-27T23:47:15;100536.16;;;3.06;86.51
5455;BME280;2750;49.050;9.250;2024-01-27T23:52:18;100534.25;;;2.90;87.09
5455;BME280;2750;49.050;9.250;2024-01-27T23:57:24;100523.81;;;2.75;86.70
